sensor_id;sensor_type;location;lat;lon;timestamp;P1;durP1;ratioP1;P2;durP2;ratioP2
19929;SDS011;10127;47.780;9.606;2022-10-31T00:00:44;13.85;;;10.75;;
19929;SDS011;10127;47.780;9.606;2022-10-31T00:03:09;12.85;;;11.32;;
19929;SDS011;10127;47.780;9.606;2022-10-31T00:05:35;12.52;;;10.75;;
19929;SDS011;10127;47.780;9.606;2022-10-31T00:08:04;22.75;;;10.63;;
19929;SDS011;10127;47.780;9.606;2022-10-31T00:10:30;12.93;;;10.40;;
19929;SDS011;10127;47.780;9.606;2022-10-31T00:12:56;20.33;;;11.23;;
19929;SDS011;10127;47.780;9.606;2022-10-31T00:15:21;14.20;;;11.25;;
19929;SDS011;10127;47.780;9.606;2022-10-31T00:17:47;14.20;;;11.07;;
19929;SDS011;10127;47.780;9.606;2022-10-31T00:20:12;14.32;;;11.18;;
19929;SDS011;10127;47.780;9.606;2022-10-31T00:22:38;16.00;;;11.35;;
19929;SDS011;10127;47.780;9.606;2022-10-31T00:25:03;16.70;;;11.70;;
19929;SDS011;10127;47.780;9.606;2022-10-31T00:27:29;23.90;;;13.02;;
19929;SDS011;10127;47.780;9.606;2022-10-31T00:29:55;15.50;;;12.38;;
19929;SDS011;10127;47.780;9.606;2022-10-31T00:32:20;17.70;;;12.52;;
19929;SDS011;10127;47.780;9.606;2022-10-31T00:34:46;19.57;;;12.50;;
19929;SDS011;10127;47.780;9.606;2022-10-31T00:37:11;19.65;;;12.80;;
19929;SDS011;10127;47.780;9.606;2022-10-31T00:39:37;21.83;;;14.03;;
19929;SDS011;10127;47.780;9.606;2022-10-31T00:42:02;19.33;;;13.40;;
19929;SDS011;10127;47.780;9.606;2022-10-31T00:44:28;17.27;;;13.40;;
19929;SDS011;10127;47.780;9.606;2022-10-31T00:46:54;16.77;;;13.20;;
19929;SDS011;10127;47.780;9.606;2022-10-31T00:49:19;19.92;;;12.90;;
19929;SDS011;10127;47.780;9.606;2022-10-31T00:51:45;22.30;;;13.20;;
19929;SDS011;10127;47.780;9.606;2022-10-31T00:54:10;19.38;;;13.90;;
19929;SDS011;10127;47.780;9.606;2022-10-31T00:56:36;22.33;;;13.30;;
19929;SDS011;10127;47.780;9.606;2022-10-31T00:59:02;26.52;;;14.25;;
19929;SDS011;10127;47.780;9.606;2022-10-31T01:01:28;20.38;;;14.48;;
19929;SDS011;10127;47.780;9.606;2022-10-31T01:03:53;18.80;;;14.35;;
19929;SDS011;10127;47.780;9.606;2022-10-31T01:06:19;19.50;;;15.60;;
19929;SDS011;10127;47.780;9.606;2022-10-31T01:08:45;19.77;;;14.25;;
19929;SDS011;10127;47.780;9.606;2022-10-31T01:13:39;20.35;;;15.10;;
19929;SDS011;10127;47.780;9.606;2022-10-31T01:16:06;18.70;;;13.77;;
19929;SDS011;10127;47.780;9.606;2022-10-31T01:18:33;25.67;;;15.00;;
19929;SDS011;10127;47.780;9.606;2022-10-31T01:23:37;18.42;;;14.30;;
19929;SDS011;10127;47.780;9.606;2022-10-31T01:28:37;17.93;;;14.60;;
19929;SDS011;10127;47.780;9.606;2022-10-31T01:31:05;15.75;;;13.27;;
19929;SDS011;10127;47.780;9.606;2022-10-31T01:33:32;14.43;;;12.10;;
19929;SDS011;10127;47.780;9.606;2022-10-31T01:35:58;17.73;;;12.00;;
19929;SDS011;10127;47.780;9.606;2022-10-31T01:38:24;14.25;;;11.88;;
19929;SDS011;10127;47.780;9.606;2022-10-31T01:40:50;15.90;;;11.88;;
19929;SDS011;10127;47.780;9.606;2022-10-31T01:43:15;15.20;;;12.33;;
19929;SDS011;10127;47.780;9.606;2022-10-31T01:45:41;14.02;;;12.23;;
19929;SDS011;10127;47.780;9.606;2022-10-31T01:48:12;13.57;;;11.63;;
19929;SDS011;10127;47.780;9.606;2022-10-31T01:50:40;15.27;;;11.70;;
19929;SDS011;10127;47.780;9.606;2022-10-31T01:53:07;17.35;;;13.30;;
19929;SDS011;10127;47.780;9.606;2022-10-31T01:55:35;16.60;;;11.57;;
19929;SDS011;10127;47.780;9.606;2022-10-31T01:58:12;15.93;;;12.55;;
19929;SDS011;10127;47.780;9.606;2022-10-31T02:00:40;15.25;;;12.30;;
19929;SDS011;10127;47.780;9.606;2022-10-31T02:03:09;17.10;;;12.40;;
19929;SDS011;10127;47.780;9.606;2022-10-31T02:05:35;18.00;;;12.68;;
19929;SDS011;10127;47.780;9.606;2022-10-31T02:10:33;19.50;;;12.07;;
19929;SDS011;10127;47.780;9.606;2022-10-31T02:13:01;15.57;;;12.07;;
19929;SDS011;10127;47.780;9.606;2022-10-31T02:15:29;16.73;;;11.57;;
19929;SDS011;10127;47.780;9.606;2022-10-31T02:17:57;15.32;;;11.82;;
19929;SDS011;10127;47.780;9.606;2022-10-31T02:20:23;16.85;;;12.68;;
19929;SDS011;10127;47.780;9.606;2022-10-31T02:23:05;27.92;;;13.07;;
19929;SDS011;10127;47.780;9.606;2022-10-31T02:26:02;18.65;;;12.57;;
19929;SDS011;10127;47.780;9.606;2022-10-31T02:36:43;17.92;;;12.10;;
19929;SDS011;10127;47.780;9.606;2022-10-31T02:39:29;22.00;;;12.02;;
19929;SDS011;10127;47.780;9.606;2022-10-31T02:42:07;20.08;;;12.35;;
19929;SDS011;10127;47.780;9.606;2022-10-31T02:47:27;24.83;;;12.05;;
19929;SDS011;10127;47.780;9.606;2022-10-31T02:50:06;22.40;;;13.07;;
19929;SDS011;10127;47.780;9.606;2022-10-31T03:16:32;33.95;;;14.80;;
19929;SDS011;10127;47.780;9.606;2022-10-31T03:19:16;27.08;;;14.88;;
19929;SDS011;10127;47.780;9.606;2022-10-31T03:21:49;36.03;;;16.92;;
19929;SDS011;10127;47.780;9.606;2022-10-31T03:24:27;36.50;;;15.73;;
19929;SDS011;10127;47.780;9.606;2022-10-31T03:26:57;28.65;;;16.23;;
19929;SDS011;10127;47.780;9.606;2022-10-31T03:29:25;29.80;;;16.20;;
19929;SDS011;10127;47.780;9.606;2022-10-31T03:31:55;25.38;;;16.52;;
19929;SDS011;10127;47.780;9.606;2022-10-31T03:34:25;23.77;;;15.48;;
19929;SDS011;10127;47.780;9.606;2022-10-31T03:36:54;29.67;;;16.40;;
19929;SDS011;10127;47.780;9.606;2022-10-31T03:39:24;27.88;;;17.65;;
19929;SDS011;10127;47.780;9.606;2022-10-31T03:41:54;26.17;;;17.95;;
19929;SDS011;10127;47.780;9.606;2022-10-31T03:44:24;27.02;;;16.30;;
19929;SDS011;10127;47.780;9.606;2022-10-31T03:46:52;25.87;;;16.20;;
19929;SDS011;10127;47.780;9.606;2022-10-31T03:49:18;25.40;;;15.95;;
19929;SDS011;10127;47.780;9.606;2022-10-31T03:54:38;27.10;;;15.25;;
19929;SDS011;10127;47.780;9.606;2022-10-31T03:57:18;32.67;;;16.63;;
19929;SDS011;10127;47.780;9.606;2022-10-31T04:00:07;20.58;;;15.88;;
19929;SDS011;10127;47.780;9.606;2022-10-31T04:02:35;24.50;;;16.13;;
19929;SDS011;10127;47.780;9.606;2022-10-31T04:05:08;23.43;;;15.60;;
19929;SDS011;10127;47.780;9.606;2022-10-31T04:07:37;25.30;;;15.85;;
19929;SDS011;10127;47.780;9.606;2022-10-31T04:10:07;21.30;;;15.77;;
19929;SDS011;10127;47.780;9.606;2022-10-31T04:12:38;28.88;;;15.27;;
19929;SDS011;10127;47.780;9.606;2022-10-31T04:15:07;24.80;;;14.40;;
19929;SDS011;10127;47.780;9.606;2022-10-31T04:17:35;20.42;;;14.02;;
19929;SDS011;10127;47.780;9.606;2022-10-31T04:20:04;19.92;;;13.77;;
19929;SDS011;10127;47.780;9.606;2022-10-31T04:22:30;20.02;;;13.80;;
19929;SDS011;10127;47.780;9.606;2022-10-31T04:24:55;24.33;;;13.10;;
19929;SDS011;10127;47.780;9.606;2022-10-31T04:27:21;20.40;;;13.73;;
19929;SDS011;10127;47.780;9.606;2022-10-31T04:29:47;19.03;;;13.30;;
19929;SDS011;10127;47.780;9.606;2022-10-31T04:32:12;21.35;;;13.25;;
19929;SDS011;10127;47.780;9.606;2022-10-31T04:34:38;38.85;;;14.10;;
19929;SDS011;10127;47.780;9.606;2022-10-31T04:37:03;31.23;;;14.10;;
19929;SDS011;10127;47.780;9.606;2022-10-31T04:39:29;21.15;;;13.00;;
19929;SDS011;10127;47.780;9.606;2022-10-31T04:41:54;25.63;;;13.27;;
19929;SDS011;10127;47.780;9.606;2022-10-31T04:44:20;18.92;;;13.93;;
19929;SDS011;10127;47.780;9.606;2022-10-31T04:46:46;21.03;;;13.63;;
19929;SDS011;10127;47.780;9.606;2022-10-31T04:49:11;22.13;;;13.65;;
19929;SDS011;10127;47.780;9.606;2022-10-31T04:51:37;23.20;;;12.63;;
19929;SDS011;10127;47.780;9.606;2022-10-31T04:54:03;20.63;;;12.93;;
19929;SDS011;10127;47.780;9.606;2022-10-31T04:56:29;17.88;;;12.45;;
19929;SDS011;10127;47.780;9.606;2022-10-31T04:58:54;20.13;;;13.20;;
19929;SDS011;10127;47.780;9.606;2022-10-31T05:01:20;15.57;;;11.90;;
19929;SDS011;10127;47.780;9.606;2022-10-31T05:03:46;23.70;;;16.40;;
19929;SDS011;10127;47.780;9.606;2022-10-31T05:06:11;24.23;;;13.77;;
19929;SDS011;10127;47.780;9.606;2022-10-31T05:08:37;17.13;;;11.93;;
19929;SDS011;10127;47.780;9.606;2022-10-31T05:11:03;19.42;;;12.23;;
19929;SDS011;10127;47.780;9.606;2022-10-31T05:13:29;16.88;;;12.13;;
19929;SDS011;10127;47.780;9.606;2022-10-31T05:15:55;18.15;;;10.90;;
19929;SDS011;10127;47.780;9.606;2022-10-31T05:18:21;21.48;;;11.15;;
19929;SDS011;10127;47.780;9.606;2022-10-31T05:20:46;30.35;;;23.58;;
19929;SDS011;10127;47.780;9.606;2022-10-31T05:23:12;18.42;;;10.93;;
19929;SDS011;10127;47.780;9.606;2022-10-31T05:25:39;11.70;;;9.70;;
19929;SDS011;10127;47.780;9.606;2022-10-31T05:28:05;18.67;;;11.23;;
19929;SDS011;10127;47.780;9.606;2022-10-31T05:30:31;14.27;;;10.63;;
19929;SDS011;10127;47.780;9.606;2022-10-31T05:32:58;19.52;;;10.82;;
19929;SDS011;10127;47.780;9.606;2022-10-31T05:35:25;15.05;;;11.07;;
19929;SDS011;10127;47.780;9.606;2022-10-31T05:37:53;18.73;;;11.17;;
19929;SDS011;10127;47.780;9.606;2022-10-31T05:40:19;38.75;;;11.15;;
19929;SDS011;10127;47.780;9.606;2022-10-31T05:42:46;29.13;;;11.87;;
19929;SDS011;10127;47.780;9.606;2022-10-31T05:45:13;18.52;;;11.35;;
19929;SDS011;10127;47.780;9.606;2022-10-31T05:47:41;25.90;;;11.43;;
19929;SDS011;10127;47.780;9.606;2022-10-31T05:50:07;13.63;;;10.93;;
19929;SDS011;10127;47.780;9.606;2022-10-31T05:52:34;17.10;;;10.17;;
19929;SDS011;10127;47.780;9.606;2022-10-31T05:55:00;17.30;;;11.53;;
19929;SDS011;10127;47.780;9.606;2022-10-31T05:57:25;26.23;;;11.23;;
19929;SDS011;10127;47.780;9.606;2022-10-31T05:59:51;14.02;;;9.95;;
19929;SDS011;10127;47.780;9.606;2022-10-31T06:02:20;20.98;;;10.68;;
19929;SDS011;10127;47.780;9.606;2022-10-31T06:04:47;21.85;;;10.90;;
19929;SDS011;10127;47.780;9.606;2022-10-31T06:07:12;32.03;;;21.95;;
19929;SDS011;10127;47.780;9.606;2022-10-31T06:09:38;21.73;;;14.07;;
19929;SDS011;10127;47.780;9.606;2022-10-31T06:12:04;15.52;;;11.05;;
19929;SDS011;10127;47.780;9.606;2022-10-31T06:14:29;21.17;;;10.93;;
19929;SDS011;10127;47.780;9.606;2022-10-31T06:16:55;20.20;;;10.80;;
19929;SDS011;10127;47.780;9.606;2022-10-31T06:19:21;32.33;;;11.95;;
19929;SDS011;10127;47.780;9.606;2022-10-31T06:21:47;21.13;;;11.93;;
19929;SDS011;10127;47.780;9.606;2022-10-31T06:24:12;23.33;;;11.45;;
19929;SDS011;10127;47.780;9.606;2022-10-31T06:26:39;18.70;;;11.57;;
19929;SDS011;10127;47.780;9.606;2022-10-31T06:29:05;21.58;;;11.43;;
19929;SDS011;10127;47.780;9.606;2022-10-31T06:31:31;17.02;;;10.27;;
19929;SDS011;10127;47.780;9.606;2022-10-31T06:33:56;18.95;;;10.93;;
19929;SDS011;10127;47.780;9.606;2022-10-31T06:36:22;16.90;;;10.52;;
19929;SDS011;10127;47.780;9.606;2022-10-31T06:38:47;21.15;;;9.98;;
19929;SDS011;10127;47.780;9.606;2022-10-31T06:41:13;18.85;;;11.27;;
19929;SDS011;10127;47.780;9.606;2022-10-31T06:43:39;12.63;;;9.30;;
19929;SDS011;10127;47.780;9.606;2022-10-31T06:46:04;14.50;;;10.18;;
19929;SDS011;10127;47.780;9.606;2022-10-31T06:48:31;14.90;;;10.48;;
19929;SDS011;10127;47.780;9.606;2022-10-31T06:50:58;15.77;;;9.20;;
19929;SDS011;10127;47.780;9.606;2022-10-31T06:53:24;12.27;;;9.43;;
19929;SDS011;10127;47.780;9.606;2022-10-31T06:55:50;15.52;;;9.75;;
19929;SDS011;10127;47.780;9.606;2022-10-31T06:58:16;21.52;;;10.68;;
19929;SDS011;10127;47.780;9.606;2022-10-31T07:00:41;12.50;;;9.98;;
19929;SDS011;10127;47.780;9.606;2022-10-31T07:03:11;15.07;;;10.45;;
19929;SDS011;10127;47.780;9.606;2022-10-31T07:05:38;13.60;;;10.38;;
19929;SDS011;10127;47.780;9.606;2022-10-31T07:08:05;16.02;;;10.48;;
19929;SDS011;10127;47.780;9.606;2022-10-31T07:10:34;17.42;;;10.77;;
19929;SDS011;10127;47.780;9.606;2022-10-31T07:13:02;14.65;;;9.55;;
19929;SDS011;10127;47.780;9.606;2022-10-31T07:15:36;20.75;;;10.85;;
19929;SDS011;10127;47.780;9.606;2022-10-31T07:18:03;14.73;;;10.88;;
19929;SDS011;10127;47.780;9.606;2022-10-31T07:20:30;16.75;;;10.98;;
19929;SDS011;10127;47.780;9.606;2022-10-31T07:22:56;13.57;;;10.00;;
19929;SDS011;10127;47.780;9.606;2022-10-31T07:25:23;13.48;;;10.18;;
19929;SDS011;10127;47.780;9.606;2022-10-31T07:27:49;15.57;;;11.73;;
19929;SDS011;10127;47.780;9.606;2022-10-31T07:30:15;19.77;;;11.25;;
19929;SDS011;10127;47.780;9.606;2022-10-31T07:32:44;13.82;;;10.57;;
19929;SDS011;10127;47.780;9.606;2022-10-31T07:35:12;13.23;;;10.43;;
19929;SDS011;10127;47.780;9.606;2022-10-31T07:37:39;16.15;;;11.27;;
19929;SDS011;10127;47.780;9.606;2022-10-31T07:40:05;23.70;;;11.02;;
19929;SDS011;10127;47.780;9.606;2022-10-31T07:42:36;14.27;;;11.23;;
19929;SDS011;10127;47.780;9.606;2022-10-31T07:45:03;19.25;;;10.57;;
19929;SDS011;10127;47.780;9.606;2022-10-31T07:47:29;22.75;;;10.10;;
19929;SDS011;10127;47.780;9.606;2022-10-31T07:50:02;14.40;;;10.07;;
19929;SDS011;10127;47.780;9.606;2022-10-31T07:52:28;19.25;;;10.88;;
19929;SDS011;10127;47.780;9.606;2022-10-31T07:54:53;37.30;;;26.38;;
19929;SDS011;10127;47.780;9.606;2022-10-31T07:57:19;24.17;;;12.35;;
19929;SDS011;10127;47.780;9.606;2022-10-31T07:59:44;14.05;;;10.40;;
19929;SDS011;10127;47.780;9.606;2022-10-31T08:02:10;16.40;;;10.52;;
19929;SDS011;10127;47.780;9.606;2022-10-31T08:04:35;17.23;;;11.85;;
19929;SDS011;10127;47.780;9.606;2022-10-31T08:07:01;19.23;;;10.75;;
19929;SDS011;10127;47.780;9.606;2022-10-31T08:09:26;13.18;;;9.38;;
19929;SDS011;10127;47.780;9.606;2022-10-31T08:11:52;12.75;;;8.85;;
19929;SDS011;10127;47.780;9.606;2022-10-31T08:14:18;11.90;;;9.07;;
19929;SDS011;10127;47.780;9.606;2022-10-31T08:16:44;13.75;;;9.43;;
19929;SDS011;10127;47.780;9.606;2022-10-31T08:19:10;12.63;;;8.90;;
19929;SDS011;10127;47.780;9.606;2022-10-31T08:21:35;11.10;;;8.90;;
19929;SDS011;10127;47.780;9.606;2022-10-31T08:24:01;11.93;;;8.70;;
19929;SDS011;10127;47.780;9.606;2022-10-31T08:26:27;12.35;;;8.77;;
19929;SDS011;10127;47.780;9.606;2022-10-31T08:28:52;12.45;;;9.35;;
19929;SDS011;10127;47.780;9.606;2022-10-31T08:31:19;10.45;;;8.23;;
19929;SDS011;10127;47.780;9.606;2022-10-31T08:33:46;9.30;;;7.82;;
19929;SDS011;10127;47.780;9.606;2022-10-31T08:36:11;10.75;;;8.75;;
19929;SDS011;10127;47.780;9.606;2022-10-31T08:38:37;12.35;;;9.00;;
19929;SDS011;10127;47.780;9.606;2022-10-31T08:41:02;12.02;;;8.68;;
19929;SDS011;10127;47.780;9.606;2022-10-31T08:43:28;11.60;;;8.60;;
19929;SDS011;10127;47.780;9.606;2022-10-31T08:45:53;17.40;;;14.10;;
19929;SDS011;10127;47.780;9.606;2022-10-31T08:48:20;22.83;;;13.10;;
19929;SDS011;10127;47.780;9.606;2022-10-31T08:50:46;11.07;;;8.35;;
19929;SDS011;10127;47.780;9.606;2022-10-31T08:53:13;12.85;;;7.63;;
19929;SDS011;10127;47.780;9.606;2022-10-31T08:55:41;16.67;;;8.98;;
19929;SDS011;10127;47.780;9.606;2022-10-31T08:58:09;11.90;;;8.57;;
19929;SDS011;10127;47.780;9.606;2022-10-31T09:00:36;14.82;;;9.00;;
19929;SDS011;10127;47.780;9.606;2022-10-31T09:03:03;19.55;;;9.48;;
19929;SDS011;10127;47.780;9.606;2022-10-31T09:05:31;15.23;;;9.48;;
19929;SDS011;10127;47.780;9.606;2022-10-31T09:07:58;11.82;;;8.52;;
19929;SDS011;10127;47.780;9.606;2022-10-31T09:10:24;12.07;;;9.18;;
19929;SDS011;10127;47.780;9.606;2022-10-31T09:12:58;13.00;;;9.38;;
19929;SDS011;10127;47.780;9.606;2022-10-31T09:15:25;19.23;;;9.73;;
19929;SDS011;10127;47.780;9.606;2022-10-31T09:17:52;13.20;;;9.13;;
19929;SDS011;10127;47.780;9.606;2022-10-31T09:20:18;13.20;;;9.57;;
19929;SDS011;10127;47.780;9.606;2022-10-31T09:22:45;15.13;;;10.48;;
19929;SDS011;10127;47.780;9.606;2022-10-31T09:25:10;15.63;;;11.30;;
19929;SDS011;10127;47.780;9.606;2022-10-31T09:27:36;18.95;;;11.98;;
19929;SDS011;10127;47.780;9.606;2022-10-31T09:30:02;16.50;;;11.10;;
19929;SDS011;10127;47.780;9.606;2022-10-31T09:32:29;16.77;;;11.32;;
19929;SDS011;10127;47.780;9.606;2022-10-31T09:34:54;14.23;;;10.77;;
19929;SDS011;10127;47.780;9.606;2022-10-31T09:37:20;25.45;;;11.07;;
19929;SDS011;10127;47.780;9.606;2022-10-31T09:39:45;17.50;;;11.57;;
19929;SDS011;10127;47.780;9.606;2022-10-31T09:45:04;17.70;;;12.20;;
19929;SDS011;10127;47.780;9.606;2022-10-31T09:50:20;16.58;;;10.52;;
19929;SDS011;10127;47.780;9.606;2022-10-31T09:55:37;15.02;;;11.18;;
19929;SDS011;10127;47.780;9.606;2022-10-31T09:58:13;13.95;;;10.32;;
19929;SDS011;10127;47.780;9.606;2022-10-31T10:00:48;13.43;;;9.82;;
19929;SDS011;10127;47.780;9.606;2022-10-31T10:03:48;12.55;;;9.75;;
19929;SDS011;10127;47.780;9.606;2022-10-31T10:06:14;14.25;;;10.93;;
19929;SDS011;10127;47.780;9.606;2022-10-31T10:08:46;17.08;;;10.25;;
19929;SDS011;10127;47.780;9.606;2022-10-31T10:13:59;13.38;;;10.40;;
19929;SDS011;10127;47.780;9.606;2022-10-31T10:27:24;10.38;;;9.10;;
19929;SDS011;10127;47.780;9.606;2022-10-31T10:30:13;15.55;;;10.52;;
19929;SDS011;10127;47.780;9.606;2022-10-31T10:32:51;15.43;;;10.85;;
19929;SDS011;10127;47.780;9.606;2022-10-31T10:35:45;16.75;;;11.30;;
19929;SDS011;10127;47.780;9.606;2022-10-31T10:38:33;16.77;;;12.48;;
19929;SDS011;10127;47.780;9.606;2022-10-31T10:41:04;15.50;;;10.20;;
19929;SDS011;10127;47.780;9.606;2022-10-31T10:43:36;14.05;;;10.80;;
19929;SDS011;10127;47.780;9.606;2022-10-31T10:49:29;16.33;;;11.25;;
19929;SDS011;10127;47.780;9.606;2022-10-31T10:52:26;14.25;;;9.68;;
19929;SDS011;10127;47.780;9.606;2022-10-31T10:55:15;12.52;;;9.35;;
19929;SDS011;10127;47.780;9.606;2022-10-31T11:00:26;13.48;;;9.98;;
19929;SDS011;10127;47.780;9.606;2022-10-31T11:02:53;16.67;;;11.65;;
19929;SDS011;10127;47.780;9.606;2022-10-31T11:05:23;24.92;;;16.67;;
19929;SDS011;10127;47.780;9.606;2022-10-31T11:07:51;25.13;;;13.73;;
19929;SDS011;10127;47.780;9.606;2022-10-31T11:10:17;13.98;;;10.07;;
19929;SDS011;10127;47.780;9.606;2022-10-31T11:12:44;12.27;;;10.15;;
19929;SDS011;10127;47.780;9.606;2022-10-31T11:15:22;12.60;;;9.85;;
19929;SDS011;10127;47.780;9.606;2022-10-31T11:17:51;12.38;;;10.05;;
19929;SDS011;10127;47.780;9.606;2022-10-31T11:22:45;13.77;;;9.88;;
19929;SDS011;10127;47.780;9.606;2022-10-31T11:27:44;14.82;;;10.48;;
19929;SDS011;10127;47.780;9.606;2022-10-31T11:30:30;20.30;;;15.00;;
19929;SDS011;10127;47.780;9.606;2022-10-31T11:33:00;41.58;;;25.23;;
19929;SDS011;10127;47.780;9.606;2022-10-31T11:35:26;13.18;;;10.05;;
19929;SDS011;10127;47.780;9.606;2022-10-31T11:37:54;18.13;;;12.52;;
19929;SDS011;10127;47.780;9.606;2022-10-31T11:40:26;26.85;;;17.70;;
19929;SDS011;10127;47.780;9.606;2022-10-31T11:42:54;26.40;;;18.25;;
19929;SDS011;10127;47.780;9.606;2022-10-31T11:47:48;17.58;;;12.35;;
19929;SDS011;10127;47.780;9.606;2022-10-31T11:50:20;18.35;;;13.20;;
19929;SDS011;10127;47.780;9.606;2022-10-31T11:52:51;22.17;;;15.10;;
19929;SDS011;10127;47.780;9.606;2022-10-31T11:55:31;20.92;;;14.13;;
19929;SDS011;10127;47.780;9.606;2022-10-31T11:57:59;26.85;;;19.35;;
19929;SDS011;10127;47.780;9.606;2022-10-31T12:00:26;26.02;;;16.90;;
19929;SDS011;10127;47.780;9.606;2022-10-31T12:06:20;25.90;;;17.38;;
19929;SDS011;10127;47.780;9.606;2022-10-31T12:08:48;24.85;;;16.48;;
19929;SDS011;10127;47.780;9.606;2022-10-31T12:14:17;24.33;;;17.20;;
19929;SDS011;10127;47.780;9.606;2022-10-31T12:19:57;25.50;;;17.20;;
19929;SDS011;10127;47.780;9.606;2022-10-31T12:33:56;21.42;;;17.25;;
19929;SDS011;10127;47.780;9.606;2022-10-31T12:44:59;25.58;;;15.65;;
19929;SDS011;10127;47.780;9.606;2022-10-31T12:58:30;22.15;;;16.98;;
19929;SDS011;10127;47.780;9.606;2022-10-31T13:07:25;20.48;;;16.10;;
19929;SDS011;10127;47.780;9.606;2022-10-31T13:09:35;21.52;;;15.48;;
19929;SDS011;10127;47.780;9.606;2022-10-31T13:12:07;20.27;;;15.60;;
19929;SDS011;10127;47.780;9.606;2022-10-31T13:14:38;18.85;;;14.93;;
19929;SDS011;10127;47.780;9.606;2022-10-31T13:17:08;19.15;;;14.15;;
19929;SDS011;10127;47.780;9.606;2022-10-31T13:19:47;23.33;;;15.75;;
19929;SDS011;10127;47.780;9.606;2022-10-31T13:22:25;19.75;;;14.65;;
19929;SDS011;10127;47.780;9.606;2022-10-31T13:25:02;25.10;;;15.50;;
19929;SDS011;10127;47.780;9.606;2022-10-31T13:27:43;17.35;;;13.70;;
19929;SDS011;10127;47.780;9.606;2022-10-31T13:30:20;19.92;;;14.45;;
19929;SDS011;10127;47.780;9.606;2022-10-31T13:32:49;22.05;;;15.45;;
19929;SDS011;10127;47.780;9.606;2022-10-31T13:38:18;21.60;;;15.23;;
19929;SDS011;10127;47.780;9.606;2022-10-31T13:40:50;20.20;;;14.38;;
19929;SDS011;10127;47.780;9.606;2022-10-31T13:46:24;17.35;;;13.43;;
19929;SDS011;10127;47.780;9.606;2022-10-31T13:48:51;20.95;;;14.30;;
19929;SDS011;10127;47.780;9.606;2022-10-31T13:51:24;18.67;;;13.73;;
19929;SDS011;10127;47.780;9.606;2022-10-31T13:54:06;19.77;;;13.88;;
19929;SDS011;10127;47.780;9.606;2022-10-31T13:56:52;24.55;;;15.32;;
19929;SDS011;10127;47.780;9.606;2022-10-31T14:01:57;23.65;;;14.88;;
19929;SDS011;10127;47.780;9.606;2022-10-31T14:04:28;22.33;;;14.45;;
19929;SDS011;10127;47.780;9.606;2022-10-31T14:07:18;22.58;;;15.88;;
19929;SDS011;10127;47.780;9.606;2022-10-31T14:17:46;19.00;;;14.48;;
19929;SDS011;10127;47.780;9.606;2022-10-31T14:22:40;19.67;;;14.32;;
19929;SDS011;10127;47.780;9.606;2022-10-31T14:28:00;22.10;;;14.13;;
19929;SDS011;10127;47.780;9.606;2022-10-31T14:30:53;21.05;;;14.48;;
19929;SDS011;10127;47.780;9.606;2022-10-31T14:33:20;23.60;;;15.30;;
19929;SDS011;10127;47.780;9.606;2022-10-31T14:36:03;23.55;;;14.50;;
19929;SDS011;10127;47.780;9.606;2022-10-31T14:46:40;16.65;;;12.88;;
19929;SDS011;10127;47.780;9.606;2022-10-31T14:49:18;16.73;;;13.35;;
19929;SDS011;10127;47.780;9.606;2022-10-31T14:52:05;23.00;;;13.48;;
19929;SDS011;10127;47.780;9.606;2022-10-31T14:54:46;19.08;;;13.25;;
19929;SDS011;10127;47.780;9.606;2022-10-31T14:57:20;25.80;;;14.90;;
19929;SDS011;10127;47.780;9.606;2022-10-31T14:59:52;20.40;;;13.07;;
19929;SDS011;10127;47.780;9.606;2022-10-31T15:02:29;21.15;;;13.25;;
19929;SDS011;10127;47.780;9.606;2022-10-31T15:05:01;20.17;;;13.55;;
19929;SDS011;10127;47.780;9.606;2022-10-31T15:07:32;21.85;;;13.55;;
19929;SDS011;10127;47.780;9.606;2022-10-31T15:10:06;22.83;;;14.57;;
19929;SDS011;10127;47.780;9.606;2022-10-31T15:12:48;23.45;;;15.02;;
19929;SDS011;10127;47.780;9.606;2022-10-31T15:15:24;27.52;;;15.45;;
19929;SDS011;10127;47.780;9.606;2022-10-31T15:17:55;22.85;;;15.50;;
19929;SDS011;10127;47.780;9.606;2022-10-31T15:20:24;24.30;;;15.05;;
19929;SDS011;10127;47.780;9.606;2022-10-31T15:22:55;23.25;;;14.40;;
19929;SDS011;10127;47.780;9.606;2022-10-31T15:25:23;24.17;;;14.43;;
19929;SDS011;10127;47.780;9.606;2022-10-31T15:27:51;24.38;;;14.95;;
19929;SDS011;10127;47.780;9.606;2022-10-31T15:30:19;21.35;;;15.07;;
19929;SDS011;10127;47.780;9.606;2022-10-31T15:32:46;22.50;;;14.60;;
19929;SDS011;10127;47.780;9.606;2022-10-31T15:35:24;24.17;;;14.82;;
19929;SDS011;10127;47.780;9.606;2022-10-31T15:37:54;25.77;;;15.93;;
19929;SDS011;10127;47.780;9.606;2022-10-31T15:40:22;20.95;;;15.25;;
19929;SDS011;10127;47.780;9.606;2022-10-31T15:42:54;19.17;;;14.80;;
19929;SDS011;10127;47.780;9.606;2022-10-31T15:45:26;27.90;;;16.40;;
19929;SDS011;10127;47.780;9.606;2022-10-31T15:50:31;22.50;;;15.60;;
19929;SDS011;10127;47.780;9.606;2022-10-31T15:53:00;25.40;;;16.00;;
19929;SDS011;10127;47.780;9.606;2022-10-31T15:55:29;25.60;;;16.80;;
19929;SDS011;10127;47.780;9.606;2022-10-31T15:58:01;27.30;;;16.00;;
19929;SDS011;10127;47.780;9.606;2022-10-31T16:00:38;30.23;;;17.98;;
19929;SDS011;10127;47.780;9.606;2022-10-31T16:05:43;31.25;;;18.52;;
19929;SDS011;10127;47.780;9.606;2022-10-31T16:10:53;24.85;;;18.05;;
19929;SDS011;10127;47.780;9.606;2022-10-31T16:13:22;24.85;;;16.95;;
19929;SDS011;10127;47.780;9.606;2022-10-31T16:15:54;26.05;;;18.13;;
19929;SDS011;10127;47.780;9.606;2022-10-31T16:18:36;29.80;;;18.33;;
19929;SDS011;10127;47.780;9.606;2022-10-31T16:21:04;29.23;;;18.77;;
19929;SDS011;10127;47.780;9.606;2022-10-31T16:23:30;28.60;;;19.27;;
19929;SDS011;10127;47.780;9.606;2022-10-31T16:25:56;34.85;;;19.02;;
19929;SDS011;10127;47.780;9.606;2022-10-31T16:28:23;24.90;;;18.25;;
19929;SDS011;10127;47.780;9.606;2022-10-31T16:30:51;34.42;;;19.65;;
19929;SDS011;10127;47.780;9.606;2022-10-31T16:36:01;29.88;;;20.25;;
19929;SDS011;10127;47.780;9.606;2022-10-31T16:38:52;31.05;;;21.88;;
19929;SDS011;10127;47.780;9.606;2022-10-31T16:41:18;26.65;;;19.85;;
19929;SDS011;10127;47.780;9.606;2022-10-31T16:43:45;31.05;;;20.10;;
19929;SDS011;10127;47.780;9.606;2022-10-31T16:46:12;35.10;;;21.35;;
19929;SDS011;10127;47.780;9.606;2022-10-31T16:48:40;33.42;;;21.38;;
19929;SDS011;10127;47.780;9.606;2022-10-31T16:51:07;32.05;;;21.23;;
19929;SDS011;10127;47.780;9.606;2022-10-31T16:53:32;36.30;;;21.63;;
19929;SDS011;10127;47.780;9.606;2022-10-31T16:55:58;29.95;;;20.45;;
19929;SDS011;10127;47.780;9.606;2022-10-31T16:58:27;35.08;;;21.73;;
19929;SDS011;10127;47.780;9.606;2022-10-31T17:00:57;36.40;;;22.73;;
19929;SDS011;10127;47.780;9.606;2022-10-31T17:03:29;46.22;;;26.55;;
19929;SDS011;10127;47.780;9.606;2022-10-31T17:05:55;43.42;;;28.20;;
19929;SDS011;10127;47.780;9.606;2022-10-31T17:08:21;41.33;;;26.42;;
19929;SDS011;10127;47.780;9.606;2022-10-31T17:10:50;34.80;;;22.60;;
19929;SDS011;10127;47.780;9.606;2022-10-31T17:13:20;36.50;;;23.13;;
19929;SDS011;10127;47.780;9.606;2022-10-31T17:15:49;32.80;;;22.23;;
19929;SDS011;10127;47.780;9.606;2022-10-31T17:18:17;34.33;;;22.50;;
19929;SDS011;10127;47.780;9.606;2022-10-31T17:20:43;38.88;;;25.10;;
19929;SDS011;10127;47.780;9.606;2022-10-31T17:23:10;43.63;;;24.67;;
19929;SDS011;10127;47.780;9.606;2022-10-31T17:25:37;37.08;;;23.80;;